Pattison, Mississippi
Current Conditions -  °F | °C
As of 12:35 PM on Sunday 21 Dec 2014 (Local Time) from KVKS Reporting Station
Clear Clear  
Wind Chill: 61°   Ceiling: Unl
Heat Index: 61°   Visibility: 10mi
Dew Point: 46°   Wind: 5mph
Humidity: 59%   Direction: 150°SSE
Pressure: 30.06"   Gusts: 12mph
Location:  31.89°N, 90.89°W
Report Text: KVKS 211835Z AUTO 15004G10KT 10SM CLR 16/08 A3006 RMK A01
Loading
Personal Weather Stations






























Interactive Weather Map New forecast layout! Learn more

10-Day Weather Forecast

Advertisements
Track Severe Weather on mobile